createdAt,value
2022-08-17T00:06:54.202Z,2.80
2022-08-17T00:16:57.419Z,2.63
2022-08-17T00:26:59.300Z,2.88
2022-08-17T00:37:00.558Z,2.85
2022-08-17T00:47:01.780Z,2.60
2022-08-17T00:57:04.737Z,2.25
2022-08-17T01:07:05.961Z,2.67
2022-08-17T01:17:07.631Z,2.20
2022-08-17T01:27:10.280Z,2.40
2022-08-17T01:37:12.579Z,2.35
2022-08-17T01:47:13.804Z,2.35
2022-08-17T01:57:15.090Z,2.10
2022-08-17T02:07:17.088Z,2.50
2022-08-17T02:17:18.800Z,2.33
2022-08-17T02:27:20.150Z,2.47
2022-08-17T02:37:21.412Z,1.95
2022-08-17T02:47:22.672Z,1.90
2022-08-17T02:57:24.157Z,2.00
2022-08-17T03:07:25.483Z,2.17
2022-08-17T03:17:26.704Z,2.05
2022-08-17T03:27:27.942Z,1.90
2022-08-17T03:37:29.170Z,2.00
2022-08-17T03:47:48.912Z,1.83
2022-08-17T03:57:50.530Z,1.88
2022-08-17T04:07:51.889Z,2.10
2022-08-17T04:17:53.247Z,2.20
2022-08-17T04:27:55.919Z,2.35
2022-08-17T04:37:57.404Z,2.38
2022-08-17T04:47:58.717Z,2.50
2022-08-17T04:58:00.024Z,2.25
2022-08-17T05:08:01.435Z,2.20
2022-08-17T05:18:02.884Z,2.25
2022-08-17T05:28:04.442Z,2.53
2022-08-17T05:38:08.276Z,2.65
2022-08-17T05:48:10.175Z,2.35
2022-08-17T05:58:21.261Z,2.50
2022-08-17T06:08:37.787Z,1.80
2022-08-17T06:18:41.799Z,2.25
2022-08-17T06:28:50.394Z,2.47
2022-08-17T06:39:10.581Z,1.50
2022-08-17T06:49:14.872Z,1.70
2022-08-17T06:59:18.453Z,3.00
2022-08-17T07:09:25.881Z,2.22
2022-08-17T07:19:31.528Z,2.83
2022-08-17T07:29:34.197Z,2.72
2022-08-17T07:39:35.529Z,2.30
2022-08-17T07:49:56.778Z,3.17
2022-08-17T08:00:01.242Z,3.55
2022-08-17T08:10:09.398Z,2.63
2022-08-17T08:20:35.048Z,4.25
2022-08-17T08:30:33.104Z,4.32
2022-08-17T08:40:53.275Z,4.68
2022-08-17T08:50:57.362Z,5.55
2022-08-17T09:00:58.598Z,6.32
2022-08-17T09:11:07.753Z,5.63
2022-08-17T09:21:28.936Z,6.20
2022-08-17T09:31:48.721Z,4.65
2022-08-17T09:41:55.901Z,5.82
2022-08-17T09:51:58.614Z,5.53
2022-08-17T10:02:06.010Z,6.07
2022-08-17T10:22:57.648Z,6.25
2022-08-17T10:33:00.094Z,5.60
2022-08-17T10:43:01.322Z,6.65
2022-08-17T10:53:02.551Z,3.70
2022-08-17T11:03:03.816Z,6.88
2022-08-17T11:13:11.264Z,7.38
2022-08-17T11:23:32.776Z,4.65
2022-08-17T11:33:36.670Z,4.43
2022-08-17T11:43:45.341Z,7.65
2022-08-17T11:53:46.776Z,5.35
2022-08-17T12:03:54.068Z,8.50
2022-08-17T12:13:58.038Z,8.32
2022-08-17T12:24:03.154Z,9.82
2022-08-17T12:34:04.451Z,10.32
2022-08-17T12:44:09.487Z,6.50
2022-08-17T12:54:18.862Z,6.72
2022-08-17T13:04:20.338Z,5.63
2022-08-17T13:14:21.567Z,8.35
2022-08-17T13:24:25.980Z,6.32
2022-08-17T13:34:27.193Z,7.40
2022-08-17T13:44:31.383Z,10.77
2022-08-17T13:54:34.125Z,9.60
2022-08-17T14:04:35.481Z,6.43
2022-08-17T14:14:36.951Z,9.02
2022-08-17T14:24:44.597Z,10.00
2022-08-17T14:34:46.486Z,10.60
2022-08-17T14:44:47.711Z,11.32
2022-08-17T14:54:51.318Z,6.43
2022-08-17T15:04:52.554Z,6.90
2022-08-17T15:14:53.806Z,11.63
2022-08-17T15:24:55.668Z,5.70
2022-08-17T15:34:57.301Z,11.73
2022-08-17T15:44:59.938Z,11.10
2022-08-17T15:55:01.371Z,11.40
2022-08-17T16:05:03.875Z,11.75
2022-08-17T16:15:05.494Z,6.78
2022-08-17T16:25:08.975Z,10.70
2022-08-17T16:35:11.575Z,9.93
2022-08-17T16:45:18.249Z,8.70
2022-08-17T16:55:20.206Z,6.20
2022-08-17T17:05:25.166Z,6.25
2022-08-17T17:15:27.490Z,8.70
2022-08-17T17:25:51.042Z,5.15
2022-08-17T17:36:18.835Z,9.40
2022-08-17T17:46:27.281Z,9.73
2022-08-17T17:56:49.698Z,10.65
2022-08-17T18:07:00.227Z,7.40
2022-08-17T18:17:02.097Z,10.60
2022-08-17T18:27:08.489Z,9.40
2022-08-17T18:37:10.282Z,10.03
2022-08-17T18:47:15.427Z,9.15
2022-08-17T18:57:16.656Z,9.02
2022-08-17T19:07:21.981Z,9.13
2022-08-17T19:17:25.563Z,9.60
2022-08-17T19:27:41.670Z,8.95
2022-08-17T19:37:43.251Z,8.65
2022-08-17T19:48:02.813Z,8.25
2022-08-17T19:58:22.232Z,7.53
2022-08-17T20:08:32.116Z,7.78
2022-08-17T20:18:33.389Z,6.90
2022-08-17T20:28:35.124Z,7.70
2022-08-17T20:38:36.359Z,7.25
2022-08-17T20:48:39.538Z,6.35
2022-08-17T20:58:46.421Z,6.95
2022-08-17T21:08:53.999Z,6.78
2022-08-17T21:29:29.918Z,6.63
2022-08-17T21:39:33.027Z,8.68
2022-08-17T21:49:37.970Z,11.68
2022-08-17T21:59:39.894Z,12.45
2022-08-17T22:09:41.332Z,13.88
2022-08-17T22:19:47.310Z,13.63
2022-08-17T22:29:56.922Z,11.52
2022-08-17T22:39:59.039Z,13.05
2022-08-17T22:50:01.037Z,13.35
2022-08-17T23:00:02.477Z,15.40
2022-08-17T23:10:06.039Z,18.23
2022-08-17T23:20:08.975Z,15.35
2022-08-17T23:30:10.566Z,15.48
2022-08-17T23:40:12.485Z,17.73
2022-08-17T23:50:14.337Z,21.45
